sensor_id;sensor_type;location;lat;lon;timestamp;temperature;humidity
33761;DHT22;20084;47.912;19.044;2022-09-17T00:01:05;15.30;99.90
33761;DHT22;20084;47.912;19.044;2022-09-17T00:03:32;15.30;99.90
33761;DHT22;20084;47.912;19.044;2022-09-17T00:06:11;15.30;99.90
33761;DHT22;20084;47.912;19.044;2022-09-17T00:08:38;15.30;99.90
33761;DHT22;20084;47.912;19.044;2022-09-17T00:11:16;15.40;99.90
33761;DHT22;20084;47.912;19.044;2022-09-17T00:13:43;15.40;99.90
33761;DHT22;20084;47.912;19.044;2022-09-17T00:16:09;15.50;99.90
33761;DHT22;20084;47.912;19.044;2022-09-17T00:18:35;15.50;99.90
33761;DHT22;20084;47.912;19.044;2022-09-17T00:21:05;15.50;99.90
33761;DHT22;20084;47.912;19.044;2022-09-17T00:23:31;15.40;99.90
33761;DHT22;20084;47.912;19.044;2022-09-17T00:25:56;15.40;99.90
33761;DHT22;20084;47.912;19.044;2022-09-17T00:28:23;15.30;99.90
33761;DHT22;20084;47.912;19.044;2022-09-17T00:30:49;15.30;99.90
33761;DHT22;20084;47.912;19.044;2022-09-17T00:33:16;15.30;99.90
33761;DHT22;20084;47.912;19.044;2022-09-17T00:35:42;15.30;99.90
33761;DHT22;20084;47.912;19.044;2022-09-17T00:38:09;15.40;99.90
33761;DHT22;20084;47.912;19.044;2022-09-17T00:40:35;15.40;99.90
33761;DHT22;20084;47.912;19.044;2022-09-17T00:43:02;15.40;99.90
33761;DHT22;20084;47.912;19.044;2022-09-17T00:45:28;15.50;99.90
33761;DHT22;20084;47.912;19.044;2022-09-17T00:48:00;15.50;99.90
33761;DHT22;20084;47.912;19.044;2022-09-17T00:53:03;15.50;99.90
33761;DHT22;20084;47.912;19.044;2022-09-17T00:55:37;15.60;99.90
33761;DHT22;20084;47.912;19.044;2022-09-17T00:58:07;15.50;99.90
33761;DHT22;20084;47.912;19.044;2022-09-17T01:00:33;15.60;99.90
33761;DHT22;20084;47.912;19.044;2022-09-17T01:02:59;15.70;99.90
33761;DHT22;20084;47.912;19.044;2022-09-17T01:12:07;15.50;99.90
33761;DHT22;20084;47.912;19.044;2022-09-17T01:23:37;15.50;99.90
33761;DHT22;20084;47.912;19.044;2022-09-17T01:34:18;15.30;99.90
33761;DHT22;20084;47.912;19.044;2022-09-17T01:37:08;15.20;99.90
33761;DHT22;20084;47.912;19.044;2022-09-17T01:40:31;15.20;99.90
33761;DHT22;20084;47.912;19.044;2022-09-17T01:42:52;15.20;99.90
33761;DHT22;20084;47.912;19.044;2022-09-17T01:45:29;15.20;99.90
33761;DHT22;20084;47.912;19.044;2022-09-17T01:48:11;15.20;99.90
33761;DHT22;20084;47.912;19.044;2022-09-17T01:50:55;15.20;99.90
33761;DHT22;20084;47.912;19.044;2022-09-17T01:53:30;15.10;99.90
33761;DHT22;20084;47.912;19.044;2022-09-17T01:56:00;15.10;99.90
33761;DHT22;20084;47.912;19.044;2022-09-17T01:58:32;15.10;99.90
33761;DHT22;20084;47.912;19.044;2022-09-17T02:01:03;15.10;99.90
33761;DHT22;20084;47.912;19.044;2022-09-17T02:03:38;15.10;99.90
33761;DHT22;20084;47.912;19.044;2022-09-17T02:06:21;15.20;99.90
33761;DHT22;20084;47.912;19.044;2022-09-17T02:08:55;15.30;99.90
33761;DHT22;20084;47.912;19.044;2022-09-17T02:11:22;15.30;99.90
33761;DHT22;20084;47.912;19.044;2022-09-17T02:14:19;15.30;99.90
33761;DHT22;20084;47.912;19.044;2022-09-17T02:16:53;15.30;99.90
33761;DHT22;20084;47.912;19.044;2022-09-17T02:19:25;15.20;99.90
33761;DHT22;20084;47.912;19.044;2022-09-17T02:24:45;15.20;99.90
33761;DHT22;20084;47.912;19.044;2022-09-17T02:30:00;15.10;99.90
33761;DHT22;20084;47.912;19.044;2022-09-17T02:32:25;15.10;99.90
33761;DHT22;20084;47.912;19.044;2022-09-17T02:34:51;15.10;99.90
33761;DHT22;20084;47.912;19.044;2022-09-17T02:37:17;15.10;99.90
33761;DHT22;20084;47.912;19.044;2022-09-17T02:39:43;15.10;99.90
33761;DHT22;20084;47.912;19.044;2022-09-17T02:53:48;14.50;99.90
33761;DHT22;20084;47.912;19.044;2022-09-17T03:00:03;14.40;99.90
33761;DHT22;20084;47.912;19.044;2022-09-17T03:02:39;14.40;99.90
33761;DHT22;20084;47.912;19.044;2022-09-17T03:05:09;14.40;99.90
33761;DHT22;20084;47.912;19.044;2022-09-17T03:07:36;14.40;99.90
33761;DHT22;20084;47.912;19.044;2022-09-17T03:10:03;14.40;99.90
33761;DHT22;20084;47.912;19.044;2022-09-17T03:12:29;14.40;99.90
33761;DHT22;20084;47.912;19.044;2022-09-17T03:14:54;14.40;99.90
33761;DHT22;20084;47.912;19.044;2022-09-17T03:17:20;14.40;99.90
33761;DHT22;20084;47.912;19.044;2022-09-17T03:19:45;14.40;99.90
33761;DHT22;20084;47.912;19.044;2022-09-17T03:22:11;14.40;99.90
33761;DHT22;20084;47.912;19.044;2022-09-17T03:24:36;14.40;99.90
33761;DHT22;20084;47.912;19.044;2022-09-17T03:27:02;14.40;99.90
33761;DHT22;20084;47.912;19.044;2022-09-17T03:29:28;14.40;99.90
33761;DHT22;20084;47.912;19.044;2022-09-17T03:31:53;14.40;99.90
33761;DHT22;20084;47.912;19.044;2022-09-17T03:34:19;14.40;99.90
33761;DHT22;20084;47.912;19.044;2022-09-17T03:36:45;14.40;99.90
33761;DHT22;20084;47.912;19.044;2022-09-17T03:39:11;14.30;99.90
33761;DHT22;20084;47.912;19.044;2022-09-17T03:41:37;14.30;99.90
33761;DHT22;20084;47.912;19.044;2022-09-17T03:44:02;14.30;99.90
33761;DHT22;20084;47.912;19.044;2022-09-17T03:46:28;14.30;99.90
33761;DHT22;20084;47.912;19.044;2022-09-17T03:48:54;14.30;99.90
33761;DHT22;20084;47.912;19.044;2022-09-17T03:51:19;14.30;99.90
33761;DHT22;20084;47.912;19.044;2022-09-17T03:53:45;14.30;99.90
33761;DHT22;20084;47.912;19.044;2022-09-17T03:56:10;14.30;99.90
33761;DHT22;20084;47.912;19.044;2022-09-17T03:58:36;14.30;99.90
33761;DHT22;20084;47.912;19.044;2022-09-17T04:01:03;14.30;99.90
33761;DHT22;20084;47.912;19.044;2022-09-17T04:03:29;14.30;99.90
33761;DHT22;20084;47.912;19.044;2022-09-17T04:05:55;14.30;99.90
33761;DHT22;20084;47.912;19.044;2022-09-17T04:08:20;14.20;99.90
33761;DHT22;20084;47.912;19.044;2022-09-17T04:10:46;14.10;99.90
33761;DHT22;20084;47.912;19.044;2022-09-17T04:13:14;14.00;99.90
33761;DHT22;20084;47.912;19.044;2022-09-17T04:15:40;13.90;99.90
33761;DHT22;20084;47.912;19.044;2022-09-17T04:18:06;13.90;99.90
33761;DHT22;20084;47.912;19.044;2022-09-17T04:20:32;13.80;99.90
33761;DHT22;20084;47.912;19.044;2022-09-17T04:22:57;13.80;99.90
33761;DHT22;20084;47.912;19.044;2022-09-17T04:25:23;13.80;99.90
33761;DHT22;20084;47.912;19.044;2022-09-17T04:27:49;13.80;99.90
33761;DHT22;20084;47.912;19.044;2022-09-17T04:30:15;13.80;99.90
33761;DHT22;20084;47.912;19.044;2022-09-17T04:32:42;13.90;99.90
33761;DHT22;20084;47.912;19.044;2022-09-17T04:35:09;13.90;99.90
33761;DHT22;20084;47.912;19.044;2022-09-17T04:37:35;13.90;99.90
33761;DHT22;20084;47.912;19.044;2022-09-17T04:40:01;13.90;99.90
33761;DHT22;20084;47.912;19.044;2022-09-17T04:42:26;14.00;99.90
33761;DHT22;20084;47.912;19.044;2022-09-17T04:44:52;13.90;99.90
33761;DHT22;20084;47.912;19.044;2022-09-17T04:47:17;13.90;99.90
33761;DHT22;20084;47.912;19.044;2022-09-17T04:49:43;13.90;99.90
33761;DHT22;20084;47.912;19.044;2022-09-17T04:52:09;14.00;99.90
33761;DHT22;20084;47.912;19.044;2022-09-17T04:54:34;14.00;99.90
33761;DHT22;20084;47.912;19.044;2022-09-17T04:57:00;14.10;99.90
33761;DHT22;20084;47.912;19.044;2022-09-17T04:59:25;14.10;99.90
33761;DHT22;20084;47.912;19.044;2022-09-17T05:01:51;14.10;99.90
33761;DHT22;20084;47.912;19.044;2022-09-17T05:04:17;14.20;99.90
33761;DHT22;20084;47.912;19.044;2022-09-17T05:06:42;14.10;99.90
33761;DHT22;20084;47.912;19.044;2022-09-17T05:09:08;14.10;99.90
33761;DHT22;20084;47.912;19.044;2022-09-17T05:11:34;14.00;99.90
33761;DHT22;20084;47.912;19.044;2022-09-17T05:13:59;13.90;99.90
33761;DHT22;20084;47.912;19.044;2022-09-17T05:16:25;13.80;99.90
33761;DHT22;20084;47.912;19.044;2022-09-17T05:18:51;13.80;99.90
33761;DHT22;20084;47.912;19.044;2022-09-17T05:21:20;13.80;99.90
33761;DHT22;20084;47.912;19.044;2022-09-17T05:23:46;13.90;99.90
33761;DHT22;20084;47.912;19.044;2022-09-17T05:26:12;13.80;99.90
33761;DHT22;20084;47.912;19.044;2022-09-17T05:28:38;13.80;99.90
33761;DHT22;20084;47.912;19.044;2022-09-17T05:31:04;13.80;99.90
33761;DHT22;20084;47.912;19.044;2022-09-17T05:33:30;13.80;99.90
33761;DHT22;20084;47.912;19.044;2022-09-17T05:35:55;13.90;99.90
33761;DHT22;20084;47.912;19.044;2022-09-17T05:38:21;13.90;99.90
33761;DHT22;20084;47.912;19.044;2022-09-17T05:40:47;13.90;99.90
33761;DHT22;20084;47.912;19.044;2022-09-17T05:43:14;14.00;99.90
33761;DHT22;20084;47.912;19.044;2022-09-17T05:45:40;14.10;99.90
33761;DHT22;20084;47.912;19.044;2022-09-17T05:48:08;14.10;99.90
33761;DHT22;20084;47.912;19.044;2022-09-17T05:50:34;14.20;99.90
33761;DHT22;20084;47.912;19.044;2022-09-17T05:53:04;14.20;99.90
33761;DHT22;20084;47.912;19.044;2022-09-17T05:55:31;14.30;99.90
33761;DHT22;20084;47.912;19.044;2022-09-17T05:57:57;14.30;99.90
33761;DHT22;20084;47.912;19.044;2022-09-17T06:00:22;14.40;99.90
33761;DHT22;20084;47.912;19.044;2022-09-17T06:02:55;14.50;99.90
33761;DHT22;20084;47.912;19.044;2022-09-17T06:05:22;14.60;99.90
33761;DHT22;20084;47.912;19.044;2022-09-17T06:07:48;14.60;99.90
33761;DHT22;20084;47.912;19.044;2022-09-17T06:10:14;14.70;99.90
33761;DHT22;20084;47.912;19.044;2022-09-17T06:12:39;14.70;99.90
33761;DHT22;20084;47.912;19.044;2022-09-17T06:15:05;14.70;99.90
33761;DHT22;20084;47.912;19.044;2022-09-17T06:17:35;14.70;99.90
33761;DHT22;20084;47.912;19.044;2022-09-17T06:20:02;14.80;99.90
33761;DHT22;20084;47.912;19.044;2022-09-17T06:22:28;14.80;99.90
33761;DHT22;20084;47.912;19.044;2022-09-17T06:24:53;14.80;99.90
33761;DHT22;20084;47.912;19.044;2022-09-17T06:27:19;14.70;99.90
33761;DHT22;20084;47.912;19.044;2022-09-17T06:29:44;14.60;99.90
33761;DHT22;20084;47.912;19.044;2022-09-17T06:32:10;14.70;99.90
33761;DHT22;20084;47.912;19.044;2022-09-17T06:34:38;14.60;99.90
33761;DHT22;20084;47.912;19.044;2022-09-17T06:37:03;14.70;99.90
33761;DHT22;20084;47.912;19.044;2022-09-17T06:39:29;14.60;99.90
33761;DHT22;20084;47.912;19.044;2022-09-17T06:41:55;14.60;99.90
33761;DHT22;20084;47.912;19.044;2022-09-17T06:44:20;14.50;99.90
33761;DHT22;20084;47.912;19.044;2022-09-17T06:46:48;14.50;99.90
33761;DHT22;20084;47.912;19.044;2022-09-17T06:49:15;14.50;99.90
33761;DHT22;20084;47.912;19.044;2022-09-17T06:51:42;14.50;99.90
33761;DHT22;20084;47.912;19.044;2022-09-17T06:54:08;14.40;99.90
33761;DHT22;20084;47.912;19.044;2022-09-17T06:56:33;14.40;99.90
33761;DHT22;20084;47.912;19.044;2022-09-17T06:58:59;14.40;99.90
33761;DHT22;20084;47.912;19.044;2022-09-17T07:01:25;14.50;99.90
33761;DHT22;20084;47.912;19.044;2022-09-17T07:03:51;14.50;99.90
33761;DHT22;20084;47.912;19.044;2022-09-17T07:06:17;14.50;99.90
33761;DHT22;20084;47.912;19.044;2022-09-17T07:08:42;14.40;99.90
33761;DHT22;20084;47.912;19.044;2022-09-17T07:11:08;14.50;99.90
33761;DHT22;20084;47.912;19.044;2022-09-17T07:13:34;14.50;99.90
33761;DHT22;20084;47.912;19.044;2022-09-17T07:16:01;14.50;99.90
33761;DHT22;20084;47.912;19.044;2022-09-17T07:18:27;14.50;99.90
33761;DHT22;20084;47.912;19.044;2022-09-17T07:20:55;14.60;99.90
33761;DHT22;20084;47.912;19.044;2022-09-17T07:23:22;14.60;99.90
33761;DHT22;20084;47.912;19.044;2022-09-17T07:26:03;14.70;99.90
33761;DHT22;20084;47.912;19.044;2022-09-17T07:28:29;14.70;99.90
33761;DHT22;20084;47.912;19.044;2022-09-17T07:30:55;14.70;99.90
33761;DHT22;20084;47.912;19.044;2022-09-17T07:33:23;14.70;99.90
33761;DHT22;20084;47.912;19.044;2022-09-17T07:35:56;14.80;99.90
33761;DHT22;20084;47.912;19.044;2022-09-17T07:38:23;14.90;99.90
33761;DHT22;20084;47.912;19.044;2022-09-17T07:43:23;15.10;99.90
33761;DHT22;20084;47.912;19.044;2022-09-17T07:45:49;15.20;99.90
33761;DHT22;20084;47.912;19.044;2022-09-17T07:48:14;15.30;99.90
33761;DHT22;20084;47.912;19.044;2022-09-17T07:50:40;15.30;99.90
33761;DHT22;20084;47.912;19.044;2022-09-17T07:53:06;15.30;99.90
33761;DHT22;20084;47.912;19.044;2022-09-17T07:55:31;15.30;99.90
33761;DHT22;20084;47.912;19.044;2022-09-17T07:57:57;15.30;99.90
33761;DHT22;20084;47.912;19.044;2022-09-17T08:00:22;15.40;99.90
33761;DHT22;20084;47.912;19.044;2022-09-17T08:02:55;15.40;99.90
33761;DHT22;20084;47.912;19.044;2022-09-17T08:05:22;15.50;99.90
33761;DHT22;20084;47.912;19.044;2022-09-17T08:07:51;15.50;99.90
33761;DHT22;20084;47.912;19.044;2022-09-17T08:10:17;15.50;99.90
33761;DHT22;20084;47.912;19.044;2022-09-17T08:12:54;15.50;99.90
33761;DHT22;20084;47.912;19.044;2022-09-17T08:15:20;15.60;99.90
33761;DHT22;20084;47.912;19.044;2022-09-17T08:17:46;15.60;99.90
33761;DHT22;20084;47.912;19.044;2022-09-17T08:20:13;15.60;99.90
33761;DHT22;20084;47.912;19.044;2022-09-17T08:22:39;15.60;99.90
33761;DHT22;20084;47.912;19.044;2022-09-17T08:25:05;15.70;99.90
33761;DHT22;20084;47.912;19.044;2022-09-17T08:27:32;15.60;99.90
33761;DHT22;20084;47.912;19.044;2022-09-17T08:29:57;15.60;99.90
33761;DHT22;20084;47.912;19.044;2022-09-17T08:32:23;15.50;99.90
33761;DHT22;20084;47.912;19.044;2022-09-17T08:34:49;15.40;99.90
33761;DHT22;20084;47.912;19.044;2022-09-17T08:37:14;15.40;99.90
33761;DHT22;20084;47.912;19.044;2022-09-17T08:39:40;15.30;99.90
33761;DHT22;20084;47.912;19.044;2022-09-17T08:42:29;15.30;99.90
33761;DHT22;20084;47.912;19.044;2022-09-17T08:44:57;15.20;99.90
33761;DHT22;20084;47.912;19.044;2022-09-17T08:47:36;15.10;99.90
33761;DHT22;20084;47.912;19.044;2022-09-17T08:50:06;15.10;99.90
33761;DHT22;20084;47.912;19.044;2022-09-17T08:52:55;15.00;99.90
33761;DHT22;20084;47.912;19.044;2022-09-17T09:03:59;14.80;99.90
33761;DHT22;20084;47.912;19.044;2022-09-17T09:06:30;14.80;99.90
33761;DHT22;20084;47.912;19.044;2022-09-17T09:09:00;14.90;99.90
33761;DHT22;20084;47.912;19.044;2022-09-17T09:11:29;14.90;99.90
33761;DHT22;20084;47.912;19.044;2022-09-17T09:16:40;14.80;99.90
33761;DHT22;20084;47.912;19.044;2022-09-17T09:19:20;14.90;99.90
33761;DHT22;20084;47.912;19.044;2022-09-17T09:24:23;15.00;99.90
33761;DHT22;20084;47.912;19.044;2022-09-17T09:30:09;15.00;99.90
33761;DHT22;20084;47.912;19.044;2022-09-17T09:35:24;15.00;99.90
33761;DHT22;20084;47.912;19.044;2022-09-17T09:38:02;15.00;99.90
33761;DHT22;20084;47.912;19.044;2022-09-17T09:57:29;15.00;99.90
33761;DHT22;20084;47.912;19.044;2022-09-17T10:00:22;15.00;99.90
33761;DHT22;20084;47.912;19.044;2022-09-17T10:02:52;15.00;99.90
33761;DHT22;20084;47.912;19.044;2022-09-17T10:05:19;15.00;99.90
33761;DHT22;20084;47.912;19.044;2022-09-17T10:07:45;15.00;99.90
33761;DHT22;20084;47.912;19.044;2022-09-17T10:10:11;15.00;99.90
33761;DHT22;20084;47.912;19.044;2022-09-17T10:12:36;15.00;99.90
33761;DHT22;20084;47.912;19.044;2022-09-17T10:15:24;15.00;99.90
33761;DHT22;20084;47.912;19.044;2022-09-17T10:18:22;15.00;99.90
33761;DHT22;20084;47.912;19.044;2022-09-17T10:20:59;15.10;99.90
33761;DHT22;20084;47.912;19.044;2022-09-17T10:23:30;15.10;99.90
33761;DHT22;20084;47.912;19.044;2022-09-17T10:25:58;15.10;99.90
33761;DHT22;20084;47.912;19.044;2022-09-17T10:28:31;15.00;99.90
33761;DHT22;20084;47.912;19.044;2022-09-17T10:31:03;15.10;99.90
33761;DHT22;20084;47.912;19.044;2022-09-17T10:33:31;15.10;99.90
33761;DHT22;20084;47.912;19.044;2022-09-17T10:36:02;15.10;99.90
33761;DHT22;20084;47.912;19.044;2022-09-17T10:38:31;15.10;99.90
33761;DHT22;20084;47.912;19.044;2022-09-17T10:41:18;15.20;99.90
33761;DHT22;20084;47.912;19.044;2022-09-17T10:43:44;15.20;99.90
33761;DHT22;20084;47.912;19.044;2022-09-17T10:46:17;15.30;99.90
33761;DHT22;20084;47.912;19.044;2022-09-17T10:49:09;15.30;99.90
33761;DHT22;20084;47.912;19.044;2022-09-17T10:51:36;15.30;99.90
33761;DHT22;20084;47.912;19.044;2022-09-17T10:56:51;15.30;99.90
33761;DHT22;20084;47.912;19.044;2022-09-17T11:04:30;15.20;99.90
33761;DHT22;20084;47.912;19.044;2022-09-17T11:10:07;15.20;99.90
33761;DHT22;20084;47.912;19.044;2022-09-17T11:12:40;15.30;99.90
33761;DHT22;20084;47.912;19.044;2022-09-17T11:18:19;15.20;99.90
33761;DHT22;20084;47.912;19.044;2022-09-17T11:31:59;15.50;99.90
33761;DHT22;20084;47.912;19.044;2022-09-17T11:34:50;15.50;99.90
33761;DHT22;20084;47.912;19.044;2022-09-17T11:37:40;15.60;99.90
33761;DHT22;20084;47.912;19.044;2022-09-17T11:42:44;15.70;99.90
33761;DHT22;20084;47.912;19.044;2022-09-17T11:45:33;15.80;99.90
33761;DHT22;20084;47.912;19.044;2022-09-17T11:48:12;15.80;99.90
33761;DHT22;20084;47.912;19.044;2022-09-17T11:53:31;15.70;99.90
33761;DHT22;20084;47.912;19.044;2022-09-17T11:56:02;15.70;99.90
33761;DHT22;20084;47.912;19.044;2022-09-17T12:01:40;16.00;99.90
33761;DHT22;20084;47.912;19.044;2022-09-17T12:07:10;16.10;99.90
33761;DHT22;20084;47.912;19.044;2022-09-17T12:09:41;16.20;99.90
33761;DHT22;20084;47.912;19.044;2022-09-17T12:12:15;16.30;99.90
33761;DHT22;20084;47.912;19.044;2022-09-17T12:14:47;16.30;99.90
33761;DHT22;20084;47.912;19.044;2022-09-17T12:17:21;16.30;99.90
33761;DHT22;20084;47.912;19.044;2022-09-17T12:19:54;16.30;99.90
33761;DHT22;20084;47.912;19.044;2022-09-17T12:22:26;16.30;99.90
33761;DHT22;20084;47.912;19.044;2022-09-17T12:24:54;16.30;99.90
33761;DHT22;20084;47.912;19.044;2022-09-17T12:27:34;16.30;99.90
33761;DHT22;20084;47.912;19.044;2022-09-17T12:30:07;16.30;99.90
33761;DHT22;20084;47.912;19.044;2022-09-17T12:33:06;16.20;99.90
33761;DHT22;20084;47.912;19.044;2022-09-17T12:52:25;15.60;99.90
33761;DHT22;20084;47.912;19.044;2022-09-17T12:57:42;15.60;99.90
33761;DHT22;20084;47.912;19.044;2022-09-17T13:00:14;15.50;99.90
33761;DHT22;20084;47.912;19.044;2022-09-17T13:11:49;15.60;99.90
33761;DHT22;20084;47.912;19.044;2022-09-17T13:17:16;15.30;99.90
33761;DHT22;20084;47.912;19.044;2022-09-17T13:22:18;15.10;99.90
33761;DHT22;20084;47.912;19.044;2022-09-17T13:24:46;15.00;99.90
33761;DHT22;20084;47.912;19.044;2022-09-17T13:27:24;15.10;99.90
33761;DHT22;20084;47.912;19.044;2022-09-17T13:37:44;15.40;99.90
33761;DHT22;20084;47.912;19.044;2022-09-17T13:40:32;15.50;99.90
33761;DHT22;20084;47.912;19.044;2022-09-17T13:45:31;15.70;99.90
33761;DHT22;20084;47.912;19.044;2022-09-17T13:48:03;15.70;99.90
33761;DHT22;20084;47.912;19.044;2022-09-17T13:50:38;15.70;99.90
33761;DHT22;20084;47.912;19.044;2022-09-17T13:55:42;15.80;99.90
33761;DHT22;20084;47.912;19.044;2022-09-17T14:05:54;15.80;99.90
33761;DHT22;20084;47.912;19.044;2022-09-17T14:08:28;15.80;99.90
33761;DHT22;20084;47.912;19.044;2022-09-17T14:10:56;15.80;99.90
33761;DHT22;20084;47.912;19.044;2022-09-17T14:16:00;15.80;99.90
33761;DHT22;20084;47.912;19.044;2022-09-17T14:21:05;15.80;99.90
33761;DHT22;20084;47.912;19.044;2022-09-17T14:23:33;15.80;99.90
33761;DHT22;20084;47.912;19.044;2022-09-17T14:26:01;15.70;99.90
33761;DHT22;20084;47.912;19.044;2022-09-17T14:28:38;15.70;99.90
33761;DHT22;20084;47.912;19.044;2022-09-17T14:31:17;15.70;99.90
33761;DHT22;20084;47.912;19.044;2022-09-17T14:33:43;15.60;99.90
33761;DHT22;20084;47.912;19.044;2022-09-17T14:36:14;15.70;99.90
33761;DHT22;20084;47.912;19.044;2022-09-17T14:38:46;15.60;99.90
33761;DHT22;20084;47.912;19.044;2022-09-17T14:46:34;15.50;99.90
33761;DHT22;20084;47.912;19.044;2022-09-17T14:49:34;15.30;99.90
33761;DHT22;20084;47.912;19.044;2022-09-17T14:52:01;15.00;99.90
33761;DHT22;20084;47.912;19.044;2022-09-17T14:54:28;14.90;99.90
33761;DHT22;20084;47.912;19.044;2022-09-17T14:57:10;14.90;99.90
33761;DHT22;20084;47.912;19.044;2022-09-17T14:59:47;14.80;99.90
33761;DHT22;20084;47.912;19.044;2022-09-17T15:04:53;14.80;99.90
33761;DHT22;20084;47.912;19.044;2022-09-17T15:07:20;14.70;99.90
33761;DHT22;20084;47.912;19.044;2022-09-17T15:09:46;14.60;99.90
33761;DHT22;20084;47.912;19.044;2022-09-17T15:12:15;14.50;99.90
33761;DHT22;20084;47.912;19.044;2022-09-17T15:14:43;14.60;99.90
33761;DHT22;20084;47.912;19.044;2022-09-17T15:17:17;14.70;99.90
33761;DHT22;20084;47.912;19.044;2022-09-17T15:19:50;14.60;99.90
33761;DHT22;20084;47.912;19.044;2022-09-17T15:22:22;14.60;99.90
33761;DHT22;20084;47.912;19.044;2022-09-17T15:25:09;14.50;99.90
33761;DHT22;20084;47.912;19.044;2022-09-17T15:27:41;14.50;99.90
33761;DHT22;20084;47.912;19.044;2022-09-17T15:30:25;14.40;99.90
33761;DHT22;20084;47.912;19.044;2022-09-17T15:35:19;14.20;99.90
33761;DHT22;20084;47.912;19.044;2022-09-17T15:37:59;14.30;99.90
33761;DHT22;20084;47.912;19.044;2022-09-17T15:40:39;14.30;99.90
33761;DHT22;20084;47.912;19.044;2022-09-17T15:43:34;14.30;99.90
33761;DHT22;20084;47.912;19.044;2022-09-17T15:46:26;14.20;99.90
33761;DHT22;20084;47.912;19.044;2022-09-17T15:49:01;14.30;99.90
33761;DHT22;20084;47.912;19.044;2022-09-17T15:51:35;14.30;99.90
33761;DHT22;20084;47.912;19.044;2022-09-17T15:54:03;14.30;99.90
33761;DHT22;20084;47.912;19.044;2022-09-17T15:56:32;14.40;99.90
33761;DHT22;20084;47.912;19.044;2022-09-17T15:59:01;14.40;99.90
33761;DHT22;20084;47.912;19.044;2022-09-17T16:08:56;14.90;99.90
33761;DHT22;20084;47.912;19.044;2022-09-17T16:11:28;15.00;99.90
33761;DHT22;20084;47.912;19.044;2022-09-17T16:13:55;15.10;99.90
33761;DHT22;20084;47.912;19.044;2022-09-17T16:16:24;15.10;99.90
33761;DHT22;20084;47.912;19.044;2022-09-17T16:18:50;15.00;99.90
33761;DHT22;20084;47.912;19.044;2022-09-17T16:21:18;14.90;99.90
33761;DHT22;20084;47.912;19.044;2022-09-17T16:23:44;15.00;99.90
33761;DHT22;20084;47.912;19.044;2022-09-17T16:26:20;15.00;99.90
33761;DHT22;20084;47.912;19.044;2022-09-17T16:28:49;14.90;99.90
33761;DHT22;20084;47.912;19.044;2022-09-17T16:31:18;14.90;99.90
33761;DHT22;20084;47.912;19.044;2022-09-17T16:33:43;15.00;99.90
33761;DHT22;20084;47.912;19.044;2022-09-17T16:36:09;15.10;99.90
33761;DHT22;20084;47.912;19.044;2022-09-17T16:38:35;15.10;99.90
33761;DHT22;20084;47.912;19.044;2022-09-17T16:41:03;15.10;99.90
33761;DHT22;20084;47.912;19.044;2022-09-17T16:43:29;15.10;99.90
33761;DHT22;20084;47.912;19.044;2022-09-17T16:46:03;15.10;99.90
33761;DHT22;20084;47.912;19.044;2022-09-17T16:48:30;15.10;99.90
33761;DHT22;20084;47.912;19.044;2022-09-17T16:50:55;15.10;99.90
33761;DHT22;20084;47.912;19.044;2022-09-17T16:53:21;15.10;99.90
33761;DHT22;20084;47.912;19.044;2022-09-17T16:55:47;15.10;99.90
33761;DHT22;20084;47.912;19.044;2022-09-17T16:58:12;15.10;99.90
33761;DHT22;20084;47.912;19.044;2022-09-17T17:00:41;15.00;99.90
33761;DHT22;20084;47.912;19.044;2022-09-17T17:03:11;15.00;99.90
33761;DHT22;20084;47.912;19.044;2022-09-17T17:05:38;15.00;99.90
33761;DHT22;20084;47.912;19.044;2022-09-17T17:08:05;15.00;99.90
33761;DHT22;20084;47.912;19.044;2022-09-17T17:10:30;15.00;99.90
33761;DHT22;20084;47.912;19.044;2022-09-17T17:12:56;15.00;99.90
33761;DHT22;20084;47.912;19.044;2022-09-17T17:15:22;15.00;99.90
33761;DHT22;20084;47.912;19.044;2022-09-17T17:17:48;14.90;99.90
33761;DHT22;20084;47.912;19.044;2022-09-17T17:20:13;14.80;99.90
33761;DHT22;20084;47.912;19.044;2022-09-17T17:22:39;14.70;99.90
33761;DHT22;20084;47.912;19.044;2022-09-17T17:25:06;14.60;99.90
33761;DHT22;20084;47.912;19.044;2022-09-17T17:27:33;14.60;99.90
33761;DHT22;20084;47.912;19.044;2022-09-17T17:29:58;14.70;99.90
33761;DHT22;20084;47.912;19.044;2022-09-17T17:32:26;14.70;99.90
33761;DHT22;20084;47.912;19.044;2022-09-17T17:34:52;14.80;99.90
33761;DHT22;20084;47.912;19.044;2022-09-17T17:37:18;14.80;99.90
33761;DHT22;20084;47.912;19.044;2022-09-17T17:39:43;14.80;99.90
33761;DHT22;20084;47.912;19.044;2022-09-17T17:42:09;14.80;99.90
33761;DHT22;20084;47.912;19.044;2022-09-17T17:44:34;14.80;99.90
33761;DHT22;20084;47.912;19.044;2022-09-17T17:47:00;14.70;99.90
33761;DHT22;20084;47.912;19.044;2022-09-17T17:49:25;14.50;99.90
33761;DHT22;20084;47.912;19.044;2022-09-17T17:51:51;14.40;99.90
33761;DHT22;20084;47.912;19.044;2022-09-17T17:54:18;14.30;99.90
33761;DHT22;20084;47.912;19.044;2022-09-17T17:56:44;14.30;99.90
33761;DHT22;20084;47.912;19.044;2022-09-17T17:59:09;14.30;99.90
33761;DHT22;20084;47.912;19.044;2022-09-17T18:01:36;14.20;99.90
33761;DHT22;20084;47.912;19.044;2022-09-17T18:04:04;14.20;99.90
33761;DHT22;20084;47.912;19.044;2022-09-17T18:06:31;14.10;99.90
33761;DHT22;20084;47.912;19.044;2022-09-17T18:08:57;14.10;99.90
33761;DHT22;20084;47.912;19.044;2022-09-17T18:11:23;14.00;99.90
33761;DHT22;20084;47.912;19.044;2022-09-17T18:13:53;14.00;99.90
33761;DHT22;20084;47.912;19.044;2022-09-17T18:16:19;14.00;99.90
33761;DHT22;20084;47.912;19.044;2022-09-17T18:18:46;14.00;99.90
33761;DHT22;20084;47.912;19.044;2022-09-17T18:21:19;14.00;99.90
33761;DHT22;20084;47.912;19.044;2022-09-17T18:23:45;13.90;99.90
33761;DHT22;20084;47.912;19.044;2022-09-17T18:26:20;13.80;99.90
33761;DHT22;20084;47.912;19.044;2022-09-17T18:28:46;13.80;99.90
33761;DHT22;20084;47.912;19.044;2022-09-17T18:31:32;13.80;99.90
33761;DHT22;20084;47.912;19.044;2022-09-17T18:34:06;13.80;99.90
33761;DHT22;20084;47.912;19.044;2022-09-17T18:36:35;13.70;99.90
33761;DHT22;20084;47.912;19.044;2022-09-17T18:39:02;13.70;99.90
33761;DHT22;20084;47.912;19.044;2022-09-17T18:41:34;13.60;99.90
33761;DHT22;20084;47.912;19.044;2022-09-17T18:44:05;13.60;99.90
33761;DHT22;20084;47.912;19.044;2022-09-17T18:46:31;13.60;99.90
33761;DHT22;20084;47.912;19.044;2022-09-17T18:48:58;13.50;99.90
33761;DHT22;20084;47.912;19.044;2022-09-17T18:51:25;13.40;99.90